< < Back
Terminal Aerodrome Forecast


Current Version              Previous Versions:   1  2  3  4  5  6  7  8  9  

Terminal Aerodrome Forecast

468
FTUS42 KMLB 260200 AAA
TAFMCO
TAF AMD
KMCO 260257Z 2603/2624 34011KT P6SM VCTS SCT007CB BKN015 OVC035
      TEMPO 2603/2606 1SM RA BKN005 OVC020
     FM260600 19010KT P6SM VCSH BKN010
     FM260900 25016G25KT P6SM VCSH BKN025
     FM261400 33011KT P6SM SCT020 BKN040=

Latest METAR

963
SAUS70 KWBC 260600 RRG
MTRMCO
METAR KMCO 260553Z 16007KT 10SM -RA BKN020 BKN031 OVC050 22/21 A2986 RMK
AO2 SLP109 P0002 60118 T02170211 10222 20211 58025 $


USA.gov is the U.S. government's official web portal to all federal, state and local government web resources and services.